Time;durP1;ratioP1;P1;durP2;ratioP2;P2;SDS_P1;SDS_P2;PMS_P1;PMS_P2;Temp;Humidity;BMP_temperature;BMP_pressure;BME280_temperature;BME280_humidity;BME280_pressure;Samples;Min_cycle;Max_cycle;Signal;HPM_P1;HPM_P2
2022/09/23 00:00:30;;;;;;;15.20;10.40;;;12.00;99.90;;;;;;5070082;28;20036;-69
2022/09/23 00:02:56;;;;;;;12.63;11.07;;;12.00;99.90;;;;;;5069359;28;20045;-74
2022/09/23 00:05:21;;;;;;;11.65;10.25;;;12.00;99.90;;;;;;5069310;28;20048;-68
2022/09/23 00:07:48;;;;;;;13.60;10.93;;;11.90;99.90;;;;;;5069622;28;20067;-69
2022/09/23 00:10:13;;;;;;;11.32;10.20;;;11.90;99.90;;;;;;5068432;28;20405;-69
2022/09/23 00:12:39;;;;;;;12.85;10.82;;;11.90;99.90;;;;;;5070610;28;20048;-70
2022/09/23 00:15:05;;;;;;;14.32;10.70;;;11.90;99.90;;;;;;5052027;28;20371;-68
2022/09/23 00:17:31;;;;;;;13.23;11.05;;;11.80;99.90;;;;;;5068668;28;20083;-69
2022/09/23 00:19:57;;;;;;;14.05;11.35;;;11.80;99.90;;;;;;5069397;28;20102;-72
2022/09/23 00:22:23;;;;;;;13.95;11.02;;;11.80;99.90;;;;;;5068627;28;20036;-68
2022/09/23 00:24:48;;;;;;;12.45;10.38;;;11.80;99.90;;;;;;5069027;28;20084;-70
2022/09/23 00:27:14;;;;;;;14.02;10.68;;;11.80;99.90;;;;;;5052602;28;20052;-69
2022/09/23 00:29:40;;;;;;;13.45;10.82;;;11.70;99.90;;;;;;5070502;28;20048;-68
2022/09/23 00:32:06;;;;;;;14.18;10.82;;;11.70;99.90;;;;;;5069366;28;20078;-69
2022/09/23 00:34:31;;;;;;;12.13;10.10;;;11.80;99.90;;;;;;5069943;28;20093;-69
2022/09/23 00:36:57;;;;;;;13.40;10.10;;;11.80;99.90;;;;;;5069316;28;20068;-68
2022/09/23 00:39:24;;;;;;;14.25;10.38;;;11.80;99.90;;;;;;5068536;28;20044;-68
2022/09/23 00:41:49;;;;;;;11.55;10.35;;;11.80;99.90;;;;;;5070043;28;20409;-69
2022/09/23 00:45:00;;;;;;;13.60;10.55;;;11.80;99.90;;;;;;5068471;28;20041;-70
2022/09/23 00:47:32;;;;;;;11.48;9.90;;;11.80;99.90;;;;;;5061597;28;20048;-68
2022/09/23 00:50:13;;;;;;;15.43;10.32;;;11.70;99.90;;;;;;5070246;28;20135;-68
2022/09/23 00:52:38;;;;;;;16.77;11.05;;;11.70;99.90;;;;;;5068030;28;20049;-69
2022/09/23 00:55:12;;;;;;;14.05;11.10;;;11.70;99.90;;;;;;5068612;28;20046;-68
2022/09/23 00:57:41;;;;;;;14.00;10.57;;;11.60;99.90;;;;;;5069951;28;20053;-68
2022/09/23 01:00:07;;;;;;;14.02;10.75;;;11.60;99.90;;;;;;5069447;28;20085;-69
2022/09/23 01:02:33;;;;;;;17.55;10.45;;;11.60;99.90;;;;;;5058014;28;20105;-70
2022/09/23 01:05:02;;;;;;;12.77;10.50;;;11.60;99.90;;;;;;5054301;28;20049;-69
2022/09/23 01:07:29;;;;;;;14.32;10.35;;;11.60;99.90;;;;;;5058169;28;20059;-69
2022/09/23 01:09:57;;;;;;;14.00;10.00;;;11.60;99.90;;;;;;5055265;28;20052;-69
2022/09/23 01:12:25;;;;;;;11.63;10.38;;;11.60;99.90;;;;;;5059368;28;20148;-69
2022/09/23 01:15:17;;;;;;;14.52;10.10;;;11.60;99.90;;;;;;5069246;28;20040;-71
2022/09/23 01:18:21;;;;;;;12.73;9.50;;;11.60;99.90;;;;;;5060242;28;20128;-70
2022/09/23 01:20:52;;;;;;;11.20;9.82;;;11.60;99.90;;;;;;5069744;28;20059;-69
2022/09/23 01:23:47;;;;;;;13.32;9.93;;;11.60;99.90;;;;;;5068174;28;20105;-69
2022/09/23 01:26:43;;;;;;;11.40;9.80;;;11.60;99.90;;;;;;5068884;28;20496;-69
2022/09/23 01:29:40;;;;;;;13.07;10.02;;;11.60;99.90;;;;;;5067475;28;20048;-69
2022/09/23 01:32:30;;;;;;;17.77;10.25;;;11.60;99.90;;;;;;5069135;28;20088;-69
2022/09/23 01:35:06;;;;;;;;;;;11.60;99.90;;;;;;5069206;28;20068;-70
2022/09/23 01:37:34;;;;;;;;;;;11.60;99.90;;;;;;5088891;28;20019;-72
2022/09/23 01:40:10;;;;;;;12.88;9.07;;;11.60;99.90;;;;;;5082820;28;19927;-70
2022/09/23 01:42:38;;;;;;;12.40;9.55;;;11.60;99.90;;;;;;5086846;28;20047;-68
2022/09/23 01:45:16;;;;;;;11.02;9.55;;;11.50;99.90;;;;;;5085847;28;20052;-69
2022/09/23 01:47:52;;;;;;;12.32;9.27;;;11.50;99.90;;;;;;5080943;28;20572;-68
2022/09/23 01:53:17;;;;;;;12.98;8.27;;;11.50;99.90;;;;;;5088192;28;20048;-70
2022/09/23 01:55:49;;;;;;;12.82;9.45;;;11.50;99.90;;;;;;5089391;28;20131;-69
2022/09/23 01:58:27;;;;;;;15.57;9.93;;;11.50;99.90;;;;;;5071402;28;20048;-69
2022/09/23 02:01:03;;;;;;;11.00;8.80;;;11.50;99.90;;;;;;5074096;28;20056;-69
2022/09/23 02:03:44;;;;;;;12.15;9.02;;;11.50;99.90;;;;;;5086363;28;20052;-69
2022/09/23 02:06:35;;;;;;;13.57;9.43;;;11.50;99.90;;;;;;5064837;28;20110;-69
2022/09/23 02:09:06;;;;;;;12.38;9.05;;;11.50;99.90;;;;;;5073762;28;20553;-69
2022/09/23 02:11:35;;;;;;;12.88;8.10;;;11.50;99.90;;;;;;5072993;28;20037;-69
2022/09/23 02:14:03;;;;;;;10.52;8.02;;;11.50;99.90;;;;;;5064998;28;20098;-68
2022/09/23 02:16:35;;;;;;;9.93;8.30;;;11.50;99.90;;;;;;5085260;28;20048;-69
2022/09/23 02:19:14;;;;;;;11.80;8.48;;;11.50;99.90;;;;;;5089462;28;20131;-69
2022/09/23 02:21:48;;;;;;;12.60;8.63;;;11.40;99.90;;;;;;5074764;28;20218;-70
2022/09/23 02:24:29;;;;;;;9.85;8.40;;;11.40;99.90;;;;;;5088064;28;20561;-73
2022/09/23 02:27:06;;;;;;;12.32;8.95;;;11.40;99.90;;;;;;5084778;28;20040;-68
2022/09/23 02:30:00;;;;;;;11.88;9.27;;;11.40;99.90;;;;;;5070973;28;20127;-69
2022/09/23 02:32:51;;;;;;;11.65;9.10;;;11.40;99.90;;;;;;5090668;28;20052;-68
2022/09/23 02:35:25;;;;;;;11.02;9.10;;;11.30;99.90;;;;;;5067348;28;20040;-72
2022/09/23 02:37:57;;;;;;;12.63;9.20;;;11.30;99.90;;;;;;5103285;28;20055;-69
2022/09/23 02:40:44;;;;;;;13.18;9.13;;;11.30;99.90;;;;;;5096521;28;20088;-69
2022/09/23 02:43:32;;;;;;;12.05;9.60;;;11.20;99.90;;;;;;5085586;28;20449;-68
2022/09/23 02:45:59;;;;;;;10.43;8.68;;;11.20;99.90;;;;;;5086028;28;20401;-69
2022/09/23 02:48:42;;;;;;;12.43;9.30;;;11.20;99.90;;;;;;5089082;28;20044;-69
2022/09/23 02:51:09;;;;;;;11.48;9.00;;;11.10;99.90;;;;;;5086042;28;20090;-69
2022/09/23 02:53:35;;;;;;;12.07;9.70;;;11.10;99.90;;;;;;5075947;28;20048;-69
2022/09/23 02:56:12;;;;;;;10.70;9.57;;;11.10;99.90;;;;;;5089443;28;20096;-69
2022/09/23 02:58:38;;;;;;;12.27;9.40;;;11.10;99.90;;;;;;5074547;28;20052;-69
2022/09/23 03:01:14;;;;;;;12.35;9.77;;;11.00;99.90;;;;;;5075246;28;20050;-69
2022/09/23 03:03:52;;;;;;;10.15;8.82;;;11.00;99.90;;;;;;5084254;28;20129;-68
2022/09/23 03:06:50;;;;;;;9.93;8.90;;;10.90;99.90;;;;;;5090294;28;20056;-68
2022/09/23 03:09:33;;;;;;;10.43;8.30;;;10.90;99.90;;;;;;5057939;28;20097;-69
2022/09/23 03:12:20;;;;;;;10.00;8.98;;;10.90;99.90;;;;;;5084069;28;20040;-69
2022/09/23 03:15:03;;;;;;;10.93;9.18;;;10.80;99.90;;;;;;5085697;28;20052;-67
2022/09/23 03:18:06;;;;;;;10.50;8.98;;;10.80;99.90;;;;;;5067300;28;20412;-69
2022/09/23 03:20:39;;;;;;;10.95;9.18;;;10.80;99.90;;;;;;5090405;28;20042;-69
2022/09/23 03:23:09;;;;;;;11.15;9.35;;;10.80;99.90;;;;;;5074120;28;20465;-70
2022/09/23 03:25:38;;;;;;;13.82;9.38;;;10.70;99.90;;;;;;5058174;28;20071;-68
2022/09/23 03:28:07;;;;;;;12.38;8.80;;;10.70;99.90;;;;;;5089283;28;20079;-68
2022/09/23 03:30:34;;;;;;;11.07;8.88;;;10.70;99.90;;;;;;5090123;28;20040;-69
2022/09/23 03:33:03;;;;;;;11.05;9.88;;;10.70;99.90;;;;;;5080799;28;20509;-69
2022/09/23 03:35:32;;;;;;;10.95;9.40;;;10.70;99.90;;;;;;5080557;28;20058;-68
2022/09/23 03:38:16;;;;;;;13.40;8.88;;;10.60;99.90;;;;;;5078711;28;20123;-69
2022/09/23 03:40:46;;;;;;;12.00;9.65;;;10.70;99.90;;;;;;5090941;28;20145;-68
2022/09/23 03:43:12;;;;;;;11.77;9.18;;;10.60;99.90;;;;;;5089448;28;20052;-71
2022/09/23 03:45:40;;;;;;;10.70;9.27;;;10.60;99.90;;;;;;5073308;28;20474;-69
2022/09/23 03:48:07;;;;;;;12.18;9.55;;;10.60;99.90;;;;;;5091563;28;20044;-68
2022/09/23 03:50:34;;;;;;;11.65;9.52;;;10.50;99.90;;;;;;5080228;28;20048;-68
2022/09/23 03:53:00;;;;;;;11.60;9.40;;;10.50;99.90;;;;;;5072394;28;20040;-69
2022/09/23 03:55:26;;;;;;;11.75;9.63;;;10.50;99.90;;;;;;5081568;28;20044;-72
2022/09/23 03:57:52;;;;;;;15.02;9.30;;;10.40;99.90;;;;;;5064672;28;20058;-68
2022/09/23 04:00:18;;;;;;;11.18;9.38;;;10.40;99.90;;;;;;5088540;28;20426;-70
2022/09/23 04:02:44;;;;;;;10.38;9.27;;;10.40;99.90;;;;;;5079178;28;20040;-69
2022/09/23 04:05:10;;;;;;;14.68;10.07;;;10.40;99.90;;;;;;5074330;28;20054;-69
2022/09/23 04:07:36;;;;;;;10.60;9.50;;;10.40;99.90;;;;;;5077299;28;20044;-70
2022/09/23 04:10:03;;;;;;;11.25;9.40;;;10.40;99.90;;;;;;5091109;28;20073;-69
2022/09/23 04:12:29;;;;;;;11.05;9.25;;;10.40;99.90;;;;;;5061595;28;20123;-74
2022/09/23 04:14:55;;;;;;;10.32;9.23;;;10.40;99.90;;;;;;5072408;28;20116;-70
2022/09/23 04:17:20;;;;;;;11.77;10.10;;;10.40;99.90;;;;;;5076557;28;20489;-70
2022/09/23 04:19:46;;;;;;;11.13;9.77;;;10.40;99.90;;;;;;5090605;28;20117;-69
2022/09/23 04:22:12;;;;;;;13.10;9.65;;;10.30;99.90;;;;;;5090775;28;20123;-68
2022/09/23 04:24:38;;;;;;;10.95;9.80;;;10.40;99.90;;;;;;5084659;28;20060;-69
2022/09/23 04:27:04;;;;;;;12.30;10.23;;;10.30;99.90;;;;;;5075279;28;20045;-69
2022/09/23 04:29:30;;;;;;;14.73;9.45;;;10.30;99.90;;;;;;5061807;28;20047;-72
2022/09/23 04:31:56;;;;;;;16.13;9.90;;;10.30;99.90;;;;;;5090666;28;20064;-68
2022/09/23 04:34:22;;;;;;;10.73;9.63;;;10.30;99.90;;;;;;5090523;28;20051;-69
2022/09/23 04:36:48;;;;;;;10.77;9.02;;;10.30;99.90;;;;;;5096171;28;20052;-70
2022/09/23 04:39:15;;;;;;;10.35;9.35;;;10.30;99.90;;;;;;5071655;28;20048;-69
2022/09/23 04:41:42;;;;;;;12.52;9.27;;;10.30;99.90;;;;;;5089444;28;20493;-70
2022/09/23 04:44:08;;;;;;;11.60;8.73;;;10.30;99.90;;;;;;5090690;28;20056;-70
2022/09/23 04:46:33;;;;;;;10.63;9.50;;;10.30;99.90;;;;;;5074722;28;20052;-73
2022/09/23 04:48:59;;;;;;;10.25;9.05;;;10.30;99.90;;;;;;5083392;28;20040;-68
2022/09/23 04:51:26;;;;;;;12.68;9.48;;;10.30;99.90;;;;;;5056227;28;20459;-68
2022/09/23 04:53:53;;;;;;;11.52;10.02;;;10.30;99.90;;;;;;5082878;28;20115;-68
2022/09/23 04:56:26;;;;;;;11.70;9.57;;;10.30;99.90;;;;;;5051079;28;20443;-70
2022/09/23 04:58:52;;;;;;;11.23;9.30;;;10.30;99.90;;;;;;5078545;28;20490;-69
2022/09/23 05:01:24;;;;;;;11.15;9.43;;;10.30;99.90;;;;;;5050787;28;20079;-70
2022/09/23 05:03:51;;;;;;;10.55;9.45;;;10.30;99.90;;;;;;5067557;28;20055;-69
2022/09/23 05:06:17;;;;;;;10.80;9.70;;;10.40;99.90;;;;;;5068158;28;20041;-68
2022/09/23 05:08:52;;;;;;;11.63;9.38;;;10.40;99.90;;;;;;5067802;28;20056;-69
2022/09/23 05:11:19;;;;;;;11.23;9.75;;;10.40;99.90;;;;;;5068184;28;20098;-69
2022/09/23 05:13:50;;;;;;;12.48;10.40;;;10.40;99.90;;;;;;5067738;28;20052;-69
2022/09/23 05:16:16;;;;;;;15.15;10.35;;;10.40;99.90;;;;;;5069345;28;20454;-70
2022/09/23 05:18:43;;;;;;;12.75;11.25;;;10.50;99.90;;;;;;5050937;28;20041;-69
2022/09/23 05:21:10;;;;;;;14.45;10.98;;;10.40;99.90;;;;;;5068991;28;20048;-71
2022/09/23 05:23:37;;;;;;;12.77;10.32;;;10.40;99.90;;;;;;5068851;28;20076;-69
2022/09/23 05:26:08;;;;;;;12.68;10.55;;;10.40;99.90;;;;;;5068775;28;20037;-69
2022/09/23 05:28:38;;;;;;;13.02;11.23;;;10.40;99.90;;;;;;5069061;28;20105;-69
2022/09/23 05:31:06;;;;;;;13.77;11.15;;;10.40;99.90;;;;;;5066675;28;20048;-69
2022/09/23 05:33:33;;;;;;;12.55;11.25;;;10.40;99.90;;;;;;5067754;28;20154;-70
2022/09/23 05:36:00;;;;;;;15.00;11.00;;;10.40;99.90;;;;;;5064840;28;20044;-69
2022/09/23 05:38:27;;;;;;;17.52;12.07;;;10.40;99.90;;;;;;5063865;28;20044;-68
2022/09/23 05:40:57;;;;;;;15.13;11.60;;;10.40;99.90;;;;;;5067954;28;20075;-69
2022/09/23 05:43:23;;;;;;;15.07;11.57;;;10.40;99.90;;;;;;5068780;28;20036;-69
2022/09/23 05:45:49;;;;;;;13.80;11.85;;;10.40;99.90;;;;;;5053769;28;20068;-70
2022/09/23 05:48:15;;;;;;;15.18;11.30;;;10.40;99.90;;;;;;5088444;28;20043;-69
2022/09/23 05:50:51;;;;;;;12.38;11.13;;;10.40;99.90;;;;;;5076981;28;20048;-70
2022/09/23 05:53:17;;;;;;;14.15;11.50;;;10.50;99.90;;;;;;5066604;28;20143;-68
2022/09/23 05:55:44;;;;;;;13.93;11.70;;;10.50;99.90;;;;;;5050733;28;20136;-73
2022/09/23 05:58:10;;;;;;;14.57;11.88;;;10.60;99.90;;;;;;5064993;28;20056;-70
2022/09/23 06:00:39;;;;;;;14.18;11.85;;;10.60;99.90;;;;;;5066277;28;20048;-70
2022/09/23 06:03:05;;;;;;;13.73;11.50;;;10.70;99.90;;;;;;5066163;28;20123;-69
2022/09/23 06:05:31;;;;;;;13.88;11.52;;;10.70;99.90;;;;;;5066183;28;20056;-70
2022/09/23 06:07:57;;;;;;;13.63;11.13;;;10.70;99.90;;;;;;5048656;28;20045;-71
2022/09/23 06:10:23;;;;;;;13.88;11.80;;;10.80;99.90;;;;;;5067404;28;20052;-71
2022/09/23 06:12:49;;;;;;;14.00;11.43;;;10.80;99.90;;;;;;5067556;28;20404;-73
2022/09/23 06:15:15;;;;;;;16.60;11.90;;;10.90;99.90;;;;;;5069842;28;20060;-69
2022/09/23 06:17:40;;;;;;;15.15;12.13;;;10.90;99.90;;;;;;5071932;28;20576;-69
2022/09/23 06:20:06;;;;;;;12.02;10.40;;;11.00;99.90;;;;;;5069083;28;20335;-70
2022/09/23 06:22:32;;;;;;;16.20;11.90;;;11.00;99.90;;;;;;5065624;28;20132;-71
2022/09/23 06:24:58;;;;;;;15.02;11.70;;;11.00;99.90;;;;;;5071045;28;20052;-69
2022/09/23 06:27:23;;;;;;;17.27;12.32;;;11.10;99.90;;;;;;5071810;28;20045;-72
2022/09/23 06:29:51;;;;;;;15.38;11.95;;;11.10;99.90;;;;;;5071454;28;20044;-72
2022/09/23 06:32:18;;;;;;;13.32;11.38;;;11.20;99.90;;;;;;5064075;28;20045;-70
2022/09/23 06:34:44;;;;;;;17.35;10.85;;;11.20;99.90;;;;;;5070309;28;20424;-72
2022/09/23 06:37:10;;;;;;;15.85;10.75;;;11.20;99.90;;;;;;5053455;28;20032;-68
2022/09/23 06:39:36;;;;;;;15.57;11.15;;;11.30;99.90;;;;;;5069352;28;20080;-69
2022/09/23 06:42:02;;;;;;;18.33;11.55;;;11.40;99.90;;;;;;5070009;28;20079;-65
2022/09/23 06:44:28;;;;;;;17.85;10.50;;;11.60;99.90;;;;;;5075045;28;20094;-67
2022/09/23 06:46:53;;;;;;;13.77;10.98;;;11.70;99.90;;;;;;5076422;28;20117;-70
2022/09/23 06:49:20;;;;;;;13.85;11.43;;;11.80;99.90;;;;;;5072345;28;20462;-72
2022/09/23 06:51:46;;;;;;;22.20;10.73;;;11.90;99.90;;;;;;5091722;28;20068;-72
2022/09/23 06:54:12;;;;;;;19.10;10.52;;;12.00;99.90;;;;;;5072252;28;20170;-73
2022/09/23 06:56:38;;;;;;;14.23;10.57;;;12.10;99.90;;;;;;5086710;28;20064;-71
2022/09/23 06:59:05;;;;;;;16.00;10.75;;;12.30;99.90;;;;;;5089646;28;20048;-69
2022/09/23 07:01:30;;;;;;;16.25;11.13;;;12.40;99.90;;;;;;5060774;28;20044;-69
2022/09/23 07:03:56;;;;;;;12.50;9.85;;;12.60;99.90;;;;;;5073694;28;20044;-70
2022/09/23 07:06:22;;;;;;;14.65;10.07;;;12.70;99.90;;;;;;5083930;28;20072;-66
2022/09/23 07:08:47;;;;;;;16.55;9.85;;;12.80;99.90;;;;;;5068903;28;20083;-69
2022/09/23 07:11:14;;;;;;;15.98;10.63;;;12.80;99.90;;;;;;5070970;28;20501;-69
2022/09/23 07:13:41;;;;;;;16.60;9.82;;;12.90;99.90;;;;;;5053721;28;20055;-70
2022/09/23 07:16:08;;;;;;;16.67;9.88;;;12.90;99.90;;;;;;5071103;28;20049;-67
2022/09/23 07:18:35;;;;;;;13.30;9.93;;;12.90;99.90;;;;;;5070042;28;20060;-69
2022/09/23 07:21:13;;;;;;;14.20;10.45;;;12.90;99.90;;;;;;5062053;28;20086;-69
2022/09/23 07:23:44;;;;;;;13.57;10.25;;;12.80;99.90;;;;;;5070052;28;20076;-70
2022/09/23 07:26:11;;;;;;;11.95;10.02;;;13.00;99.90;;;;;;5059359;28;20489;-70
2022/09/23 07:28:37;;;;;;;11.35;10.02;;;12.80;99.90;;;;;;5083450;28;20052;-71
2022/09/23 07:31:06;;;;;;;11.52;10.20;;;12.90;99.90;;;;;;5091175;28;20051;-74
2022/09/23 07:33:36;;;;;;;16.42;10.18;;;12.90;99.90;;;;;;5077903;28;20059;-75
2022/09/23 07:36:17;;;;;;;12.77;10.52;;;12.90;99.90;;;;;;5067566;28;20044;-75
2022/09/23 07:38:45;;;;;;;12.73;10.35;;;12.90;99.90;;;;;;5067065;28;20044;-79
2022/09/23 07:41:13;;;;;;;15.52;10.55;;;12.90;99.90;;;;;;5069854;28;20393;-69
2022/09/23 07:43:39;;;;;;;14.18;10.38;;;12.90;99.90;;;;;;5070462;28;20044;-67
2022/09/23 07:46:09;;;;;;;14.95;10.90;;;12.90;99.90;;;;;;5070161;28;20044;-67
2022/09/23 07:48:36;;;;;;;67.45;19.35;;;13.00;99.90;;;;;;5068996;28;20059;-71
2022/09/23 07:51:25;;;;;;;50.63;15.65;;;13.10;99.90;;;;;;5069796;28;20128;-70
2022/09/23 07:53:52;;;;;;;14.75;10.60;;;13.30;99.90;;;;;;5068029;28;20120;-75
2022/09/23 07:56:19;;;;;;;12.38;9.88;;;13.50;99.90;;;;;;5081470;28;20141;-74
2022/09/23 07:58:58;;;;;;;12.85;10.10;;;13.80;99.90;;;;;;5075765;28;20144;-74
2022/09/23 08:01:56;;;;;;;14.88;10.45;;;14.00;99.90;;;;;;5064772;28;20048;-79
2022/09/23 08:04:29;;;;;;;12.73;9.80;;;14.10;99.90;;;;;;5061082;28;20124;-75
2022/09/23 08:07:01;;;;;;;12.27;9.57;;;14.10;99.90;;;;;;5073965;28;20052;-75
2022/09/23 08:09:40;;;;;;;12.50;9.40;;;14.10;99.90;;;;;;5080221;28;20059;-74
2022/09/23 08:12:10;;;;;;;13.32;10.13;;;14.10;99.90;;;;;;5083660;28;20517;-76
2022/09/23 08:14:37;;;;;;;12.35;9.50;;;14.10;99.90;;;;;;5079532;28;20056;-73
2022/09/23 08:17:04;;;;;;;13.98;10.27;;;14.10;99.90;;;;;;5054677;28;20048;-72
2022/09/23 08:19:30;;;;;;;12.02;9.70;;;14.10;99.90;;;;;;5055822;28;20048;-75
2022/09/23 08:21:56;;;;;;;71.57;17.88;;;14.10;99.90;;;;;;5067055;28;20054;-72
2022/09/23 08:24:23;;;;;;;17.05;10.30;;;14.10;99.90;;;;;;5065723;28;20115;-74
2022/09/23 08:26:52;;;;;;;21.83;10.45;;;14.20;99.90;;;;;;5046989;28;20041;-74
2022/09/23 08:29:20;;;;;;;18.77;10.13;;;14.30;99.90;;;;;;5054099;28;20513;-74
2022/09/23 08:31:46;;;;;;;17.02;9.60;;;14.40;99.90;;;;;;5048772;28;20059;-73
2022/09/23 08:34:12;;;;;;;23.98;11.20;;;14.40;99.90;;;;;;5033358;28;20149;-74
2022/09/23 08:36:38;;;;;;;19.05;10.20;;;14.50;99.90;;;;;;5066903;28;20523;-75
2022/09/23 08:39:06;;;;;;;14.32;9.35;;;14.50;99.90;;;;;;5064452;28;20123;-74
2022/09/23 08:41:47;;;;;;;16.05;10.10;;;14.50;99.90;;;;;;5061289;28;20056;-75
2022/09/23 08:44:19;;;;;;;19.73;10.77;;;14.60;99.90;;;;;;5054656;28;20119;-75
2022/09/23 08:47:23;;;;;;;11.10;8.77;;;14.70;99.90;;;;;;5069025;28;20123;-74
2022/09/23 08:50:11;;;;;;;13.82;9.75;;;14.80;99.90;;;;;;5061874;28;20045;-75
2022/09/23 08:52:47;;;;;;;14.32;9.27;;;15.30;99.90;;;;;;5058981;28;20049;-77
2022/09/23 08:55:14;;;;;;;14.98;9.13;;;15.60;99.90;;;;;;5067243;28;20470;-77
2022/09/23 08:58:07;;;;;;;12.50;9.07;;;15.80;99.90;;;;;;5066708;28;20130;-77
2022/09/23 09:00:41;;;;;;;13.10;8.68;;;15.80;99.90;;;;;;5055885;28;20131;-77
2022/09/23 09:03:18;;;;;;;13.43;8.85;;;15.80;99.90;;;;;;5067656;28;20052;-76
2022/09/23 09:05:44;;;;;;;10.23;8.38;;;15.70;99.90;;;;;;5078275;28;20194;-77
2022/09/23 09:08:11;;;;;;;9.85;8.15;;;15.60;99.90;;;;;;5056353;28;20063;-76
2022/09/23 09:10:45;;;;;;;14.35;8.73;;;15.50;99.90;;;;;;5075424;28;20055;-75
2022/09/23 09:13:47;;;;;;;11.43;7.90;;;15.50;99.90;;;;;;5068080;28;20036;-74
2022/09/23 09:16:46;;;;;;;13.95;8.70;;;15.50;99.90;;;;;;5018683;28;20067;-79
2022/09/23 09:19:23;;;;;;;11.20;7.40;;;15.60;99.90;;;;;;5062427;28;20062;-75
2022/09/23 09:21:52;;;;;;;11.23;7.32;;;15.60;99.90;;;;;;5051168;28;20727;-78
2022/09/23 09:24:28;;;;;;;15.23;7.80;;;15.50;99.90;;;;;;5067095;28;20131;-75
2022/09/23 09:26:54;;;;;;;14.20;8.45;;;15.60;99.90;;;;;;5068285;28;20048;-75
2022/09/23 09:29:27;;;;;;;14.07;7.70;;;15.60;99.90;;;;;;5068022;28;20155;-78
2022/09/23 09:31:52;;;;;;;10.43;8.07;;;15.60;99.90;;;;;;5070218;28;20048;-80
2022/09/23 09:34:40;;;;;;;11.18;7.85;;;15.60;99.90;;;;;;5069673;28;20480;-80
2022/09/23 09:37:18;;;;;;;9.00;7.43;;;15.60;99.90;;;;;;5082351;28;20498;-79
2022/09/23 09:39:44;;;;;;;9.73;7.70;;;15.60;99.90;;;;;;5067905;28;20080;-78
2022/09/23 09:42:19;;;;;;;10.02;8.15;;;15.60;99.90;;;;;;5052065;28;20079;-81
2022/09/23 09:44:57;;;;;;;11.38;8.13;;;15.60;99.90;;;;;;5083869;28;20067;-83
2022/09/23 09:48:02;;;;;;;13.43;7.53;;;15.60;99.90;;;;;;5076680;28;20044;-79
2022/09/23 09:50:52;;;;;;;9.90;7.93;;;15.60;99.90;;;;;;5086824;28;20054;-80
2022/09/23 09:53:26;;;;;;;9.90;7.65;;;15.70;99.90;;;;;;5077914;28;20053;-78
2022/09/23 09:56:06;;;;;;;11.82;7.45;;;15.70;99.90;;;;;;5061059;28;20044;-81
2022/09/23 09:58:49;;;;;;;13.73;8.40;;;15.70;99.90;;;;;;5054442;28;20611;-82
2022/09/23 10:01:22;;;;;;;12.68;7.65;;;15.80;99.90;;;;;;5072763;28;20049;-78
2022/09/23 10:03:50;;;;;;;11.35;8.10;;;15.90;99.90;;;;;;5035704;28;20405;-83
2022/09/23 10:06:21;;;;;;;11.32;8.07;;;15.90;99.90;;;;;;5073151;28;20032;-78
2022/09/23 10:09:03;;;;;;;11.77;7.88;;;15.90;99.90;;;;;;5055462;28;20048;-75
2022/09/23 10:11:29;;;;;;;10.38;7.70;;;15.90;99.90;;;;;;5072384;28;20045;-81
2022/09/23 10:14:17;;;;;;;20.50;9.35;;;15.90;99.90;;;;;;5072121;28;20036;-80
2022/09/23 10:16:45;;;;;;;13.50;8.63;;;15.90;99.90;;;;;;5050191;28;20132;-80
2022/09/23 10:19:23;;;;;;;18.45;8.20;;;15.90;99.90;;;;;;5066290;28;20481;-79
2022/09/23 10:21:53;;;;;;;19.55;8.32;;;16.00;99.90;;;;;;5072412;28;20052;-78
2022/09/23 10:24:27;;;;;;;10.85;7.53;;;16.00;99.90;;;;;;5071247;28;20131;-78
2022/09/23 10:26:56;;;;;;;12.07;8.13;;;16.10;99.90;;;;;;5071875;28;20084;-79
2022/09/23 10:29:37;;;;;;;10.50;7.60;;;16.10;99.90;;;;;;5054286;28;20074;-77
2022/09/23 10:32:35;;;;;;;23.58;7.90;;;16.10;99.90;;;;;;5066045;28;20057;-78
2022/09/23 10:35:07;;;;;;;15.70;8.18;;;16.10;99.90;;;;;;5061095;28;20045;-75
2022/09/23 10:37:43;;;;;;;9.68;7.65;;;16.10;99.90;;;;;;5071623;28;20159;-78
2022/09/23 10:46:46;;;;;;;12.15;8.18;;;16.10;99.90;;;;;;5084902;28;20040;-74
2022/09/23 10:49:39;;;;;;;29.27;9.80;;;16.20;99.90;;;;;;5064571;28;20477;-73
2022/09/23 10:52:34;;;;;;;13.13;8.10;;;16.20;99.90;;;;;;5070835;28;20106;-82
2022/09/23 10:55:00;;;;;;;;;;;16.20;99.90;;;;;;5076699;28;20056;-81
2022/09/23 10:57:40;;;;;;;9.95;7.65;;;16.20;99.90;;;;;;5073725;28;20006;-82
2022/09/23 11:00:26;;;;;;;14.55;8.07;;;16.30;99.90;;;;;;5057679;28;20048;-83
2022/09/23 11:03:14;;;;;;;11.88;8.48;;;16.30;99.90;;;;;;5069671;28;20079;-76
2022/09/23 11:06:01;;;;;;;10.23;7.93;;;16.30;99.90;;;;;;5052057;28;20405;-76
2022/09/23 11:08:36;;;;;;;11.15;7.97;;;16.40;99.90;;;;;;5063227;28;20060;-78
2022/09/23 11:11:15;;;;;;;16.10;9.18;;;16.40;99.90;;;;;;5057644;28;20128;-77
2022/09/23 11:13:47;;;;;;;18.30;8.77;;;16.40;99.90;;;;;;5067019;28;20052;-75
2022/09/23 11:16:30;;;;;;;14.05;8.18;;;16.50;99.90;;;;;;5071065;28;20084;-76
2022/09/23 11:19:05;;;;;;;14.68;7.88;;;16.60;99.90;;;;;;5064347;28;20043;-75
2022/09/23 11:21:55;;;;;;;11.77;9.05;;;16.60;99.90;;;;;;5091538;28;20119;-74
2022/09/23 11:24:50;;;;;;;12.80;9.30;;;16.70;99.90;;;;;;5070259;28;20500;-75
2022/09/23 11:27:25;;;;;;;;;;;16.70;99.90;;;;;;5075127;28;20048;-74
2022/09/23 11:30:05;;;;;;;10.60;8.50;;;16.70;99.90;;;;;;5074697;28;19931;-76
2022/09/23 11:32:45;;;;;;;19.27;9.23;;;16.70;99.90;;;;;;5053818;28;20049;-81
2022/09/23 11:35:26;;;;;;;10.95;8.60;;;16.70;99.90;;;;;;5056996;28;20071;-77
2022/09/23 11:38:44;;;;;;;14.23;9.07;;;16.70;99.90;;;;;;5070902;28;20056;-76
2022/09/23 11:41:27;;;;;;;11.70;9.20;;;16.70;99.90;;;;;;4994092;28;20056;-83
2022/09/23 11:44:22;;;;;;;15.88;9.32;;;16.70;99.90;;;;;;5074123;28;20557;-78
2022/09/23 11:46:53;;;;;;;65.45;12.02;;;16.70;99.90;;;;;;5078406;28;20935;-81
2022/09/23 11:49:25;;;;;;;31.77;10.45;;;16.70;99.90;;;;;;5076208;28;20071;-80
2022/09/23 11:52:20;;;;;;;17.35;9.55;;;16.70;99.90;;;;;;5076211;28;20051;-79
2022/09/23 11:55:02;;;;;;;103.38;15.65;;;16.70;99.90;;;;;;5066296;28;20056;-79
2022/09/23 11:57:49;;;;;;;27.88;10.27;;;16.70;99.90;;;;;;5068319;28;20446;-77
2022/09/23 12:00:21;;;;;;;11.18;8.93;;;16.70;99.90;;;;;;5067145;28;20036;-83
2022/09/23 12:03:00;;;;;;;16.08;9.13;;;16.70;99.90;;;;;;5069768;28;20552;-84
2022/09/23 12:05:43;;;;;;;12.00;9.02;;;16.70;99.90;;;;;;5067558;28;20046;-83
2022/09/23 12:08:28;;;;;;;19.52;9.75;;;16.70;99.90;;;;;;5071640;28;20185;-80
2022/09/23 12:11:04;;;;;;;13.23;9.27;;;16.70;99.90;;;;;;5068035;28;20127;-75
2022/09/23 12:13:52;;;;;;;20.85;9.00;;;16.70;99.90;;;;;;5051502;28;20059;-72
2022/09/23 12:16:32;;;;;;;13.27;9.75;;;16.80;99.90;;;;;;5069650;28;20553;-74
2022/09/23 12:19:27;;;;;;;16.15;9.60;;;16.80;99.90;;;;;;5071173;28;20455;-76
2022/09/23 12:22:30;;;;;;;15.10;9.48;;;16.80;99.90;;;;;;5050665;28;20132;-76
2022/09/23 12:25:12;;;;;;;13.25;9.75;;;16.90;99.90;;;;;;5067502;28;20060;-79
2022/09/23 12:27:42;;;;;;;14.40;9.70;;;16.80;99.90;;;;;;5078080;28;20048;-77
2022/09/23 12:30:23;;;;;;;15.27;9.32;;;16.80;99.90;;;;;;5084208;28;20055;-81
2022/09/23 12:32:50;;;;;;;11.80;9.18;;;16.80;99.90;;;;;;5088899;28;20456;-77
2022/09/23 12:35:44;;;;;;;13.10;9.63;;;16.80;99.90;;;;;;5076605;28;20079;-77
2022/09/23 12:38:19;;;;;;;13.15;9.38;;;16.80;99.90;;;;;;5074994;28;20083;-79
2022/09/23 12:40:45;;;;;;;12.90;9.90;;;16.80;99.90;;;;;;5074703;28;20044;-78
2022/09/23 12:43:48;;;;;;;13.80;9.35;;;16.80;99.90;;;;;;5075697;28;20059;-78
2022/09/23 12:46:44;;;;;;;11.45;9.80;;;16.80;99.90;;;;;;5079896;28;20428;-78
2022/09/23 12:49:28;;;;;;;12.80;9.18;;;16.80;99.90;;;;;;5067792;28;20184;-78
2022/09/23 12:52:24;;;;;;;11.70;9.07;;;16.90;99.90;;;;;;5074414;28;20847;-79
2022/09/23 12:54:50;;;;;;;10.60;9.00;;;16.90;99.90;;;;;;5071267;28;20504;-79
2022/09/23 12:57:34;;;;;;;12.00;9.60;;;16.90;99.90;;;;;;5059301;28;20127;-78
2022/09/23 13:00:11;;;;;;;12.35;9.48;;;17.00;99.90;;;;;;5105896;28;20056;-79
2022/09/23 13:08:42;;;;;;;12.40;8.95;;;17.00;99.90;;;;;;5085325;28;20393;-79
2022/09/23 13:11:27;;;;;;;19.35;9.65;;;17.10;99.90;;;;;;5054693;28;20040;-79
2022/09/23 13:13:55;;;;;;;14.35;9.20;;;17.10;99.90;;;;;;5066844;28;20139;-79
2022/09/23 13:16:24;;;;;;;14.27;9.38;;;17.10;99.90;;;;;;5062615;28;20047;-80
2022/09/23 13:19:22;;;;;;;12.27;9.15;;;17.10;99.90;;;;;;5072423;28;20049;-79
2022/09/23 13:21:50;;;;;;;11.13;9.25;;;17.20;99.90;;;;;;5058045;28;20059;-78
2022/09/23 13:24:27;;;;;;;12.40;9.60;;;17.10;99.90;;;;;;5067236;28;20068;-80